Terminal Aerodrome Forecast
Issued by NWS

Home | Current Version | Previous Version | Text Only | Print | Product List | Glossary On
Versions: 1 2 3 4 5 6 7 8 9 10 11 12 13 14 15 16 17
000
FTUS43 KIND 240500
TAFBMG
TAF
KBMG 240520Z 2406/2506 14002KT P6SM SCT100 BKN250
     FM240900 14002KT P6SM BKN100
     FM241500 18011G20KT P6SM SCT040 BKN100
     FM242000 17010G20KT P6SM BKN040
      AMD LTD TO CLD VIS AND WIND TIL 241300=

USA.gov is the U.S. government's official web portal to all federal, state and local government web resources and services.